Time;durP1;ratioP1;P1;durP2;ratioP2;P2;SDS_P1;SDS_P2;PMS_P1;PMS_P2;Temp;Humidity;BMP_temperature;BMP_pressure;BME280_temperature;BME280_humidity;BME280_pressure;Samples;Min_cycle;Max_cycle;Signal;HPM_P1;HPM_P2
2022/04/29 00:00:20;;;;;;;0.30;0.30;;;6.90;99.90;;;;;;4979156;28;20181;-85
2022/04/29 00:02:46;;;;;;;0.30;0.30;;;7.00;99.90;;;;;;4984642;28;22686;-86
2022/04/29 00:05:14;;;;;;;0.30;0.30;;;6.90;99.90;;;;;;4991468;28;20276;-85
2022/04/29 00:07:41;;;;;;;0.30;0.30;;;6.90;99.90;;;;;;4984090;28;20488;-85
2022/04/29 00:10:12;;;;;;;0.30;0.30;;;6.70;99.90;;;;;;4985662;28;20511;-85
2022/04/29 00:12:38;;;;;;;0.30;0.30;;;6.60;99.90;;;;;;4990225;28;20448;-86
2022/04/29 00:15:05;;;;;;;0.30;0.30;;;6.70;99.90;;;;;;4985265;28;20440;-86
2022/04/29 00:17:32;;;;;;;0.30;0.30;;;6.80;99.90;;;;;;4983210;28;20472;-84
2022/04/29 00:19:58;;;;;;;0.30;0.30;;;6.80;99.90;;;;;;4982972;28;20451;-84
2022/04/29 00:22:23;;;;;;;0.40;0.40;;;6.70;99.90;;;;;;4981343;28;20463;-85
2022/04/29 00:24:49;;;;;;;0.30;0.30;;;6.70;99.90;;;;;;4982579;28;20563;-86
2022/04/29 00:27:14;;;;;;;0.30;0.30;;;6.70;99.90;;;;;;4989635;28;20220;-85
2022/04/29 00:29:40;;;;;;;0.30;0.30;;;6.60;99.90;;;;;;4989699;28;20192;-86
2022/04/29 00:32:06;;;;;;;0.30;0.30;;;6.50;99.90;;;;;;4979935;28;20197;-84
2022/04/29 00:34:32;;;;;;;0.40;0.40;;;6.60;99.90;;;;;;4985881;28;20190;-86
2022/04/29 00:36:57;;;;;;;0.30;0.30;;;6.60;99.90;;;;;;4987260;28;20498;-86
2022/04/29 00:39:23;;;;;;;0.40;0.40;;;6.60;99.90;;;;;;4980273;28;20193;-85
2022/04/29 00:41:49;;;;;;;0.40;0.40;;;6.50;99.90;;;;;;4984947;28;20189;-86
2022/04/29 00:44:15;;;;;;;0.30;0.30;;;6.50;99.90;;;;;;4978716;28;20197;-86
2022/04/29 00:46:43;;;;;;;0.30;0.30;;;6.40;99.90;;;;;;4977879;28;20476;-86
2022/04/29 00:49:15;;;;;;;0.33;0.33;;;6.40;99.90;;;;;;4973107;28;20575;-85
2022/04/29 00:51:44;;;;;;;0.40;0.40;;;6.40;99.90;;;;;;4980857;28;20572;-86
2022/04/29 00:54:13;;;;;;;0.30;0.30;;;6.30;99.90;;;;;;4979612;28;20915;-85
2022/04/29 00:56:41;;;;;;;0.30;0.30;;;6.30;99.90;;;;;;4985040;28;20460;-85
2022/04/29 00:59:21;;;;;;;0.40;0.40;;;6.30;99.90;;;;;;4986214;28;20448;-85
2022/04/29 01:01:47;;;;;;;0.30;0.30;;;6.30;99.90;;;;;;4982834;28;20509;-85
2022/04/29 01:04:40;;;;;;;0.30;0.30;;;6.30;99.90;;;;;;4984498;28;21242;-85
2022/04/29 01:07:05;;;;;;;0.30;0.30;;;6.20;99.90;;;;;;4975011;28;20221;-85
2022/04/29 01:09:31;;;;;;;0.30;0.30;;;6.30;99.90;;;;;;4985874;28;20447;-86
2022/04/29 01:11:57;;;;;;;0.30;0.30;;;6.20;99.90;;;;;;4981998;28;20225;-86
2022/04/29 01:14:22;;;;;;;0.30;0.30;;;6.20;99.90;;;;;;4982721;28;20716;-85
2022/04/29 01:16:48;;;;;;;0.20;0.20;;;6.10;99.90;;;;;;4978596;28;20247;-85
2022/04/29 01:19:13;;;;;;;0.40;0.40;;;6.00;99.90;;;;;;4979856;28;20186;-85
2022/04/29 01:21:40;;;;;;;0.30;0.30;;;5.90;99.90;;;;;;4982360;28;20275;-86
2022/04/29 01:24:07;;;;;;;0.37;0.37;;;6.00;99.90;;;;;;4974754;28;20268;-85
2022/04/29 01:26:34;;;;;;;0.30;0.30;;;6.00;99.90;;;;;;4985122;28;21058;-85
2022/04/29 01:29:01;;;;;;;0.30;0.30;;;6.00;99.90;;;;;;4984052;28;20459;-86
2022/04/29 01:31:29;;;;;;;0.30;0.30;;;5.90;99.90;;;;;;4979424;28;20444;-85
2022/04/29 01:33:55;;;;;;;0.30;0.30;;;5.80;99.90;;;;;;4977156;28;20507;-85
2022/04/29 01:36:21;;;;;;;0.40;0.40;;;5.80;99.90;;;;;;4982621;28;20467;-85
2022/04/29 01:38:46;;;;;;;0.30;0.30;;;5.80;99.90;;;;;;4972157;28;20448;-84
2022/04/29 01:41:13;;;;;;;0.30;0.30;;;5.80;99.90;;;;;;4989026;28;20915;-85
2022/04/29 01:43:39;;;;;;;0.30;0.30;;;5.80;99.90;;;;;;4982524;28;20247;-85
2022/04/29 01:46:04;;;;;;;0.40;0.40;;;5.70;99.90;;;;;;4979220;28;20535;-86
2022/04/29 01:48:30;;;;;;;0.40;0.40;;;5.70;99.90;;;;;;4983114;28;20460;-86
2022/04/29 01:50:56;;;;;;;0.40;0.40;;;5.70;99.90;;;;;;4983130;28;20234;-85
2022/04/29 01:53:21;;;;;;;0.40;0.40;;;5.70;99.90;;;;;;4970766;28;20193;-86
2022/04/29 01:55:47;;;;;;;0.30;0.30;;;5.70;99.90;;;;;;4972144;28;20193;-85
2022/04/29 01:58:13;;;;;;;0.30;0.30;;;5.60;99.90;;;;;;4977692;28;20272;-85
2022/04/29 02:00:39;;;;;;;0.30;0.30;;;5.60;99.90;;;;;;4980807;28;20189;-85
2022/04/29 02:03:05;;;;;;;0.30;0.30;;;5.60;99.90;;;;;;4977575;28;20505;-86
2022/04/29 02:05:30;;;;;;;0.30;0.30;;;5.60;99.90;;;;;;4985851;28;20761;-86
2022/04/29 02:08:00;;;;;;;0.40;0.40;;;5.60;99.90;;;;;;4981889;28;20228;-84
2022/04/29 02:10:26;;;;;;;0.30;0.30;;;5.50;99.90;;;;;;4981730;28;20697;-85
2022/04/29 02:12:52;;;;;;;0.30;0.30;;;5.60;99.90;;;;;;4987780;28;20464;-85
2022/04/29 02:15:20;;;;;;;0.30;0.30;;;5.40;99.90;;;;;;4980901;28;20899;-85
2022/04/29 02:17:45;;;;;;;0.40;0.40;;;5.40;99.90;;;;;;4982623;28;20452;-86
2022/04/29 02:20:11;;;;;;;0.30;0.30;;;5.50;99.90;;;;;;4984826;28;20877;-85
2022/04/29 02:22:37;;;;;;;0.40;0.40;;;5.50;99.90;;;;;;4976689;28;20189;-85
2022/04/29 02:25:03;;;;;;;0.30;0.30;;;5.40;99.90;;;;;;4986161;28;20846;-86
2022/04/29 02:27:29;;;;;;;0.30;0.30;;;5.40;99.90;;;;;;4980256;28;20614;-85
2022/04/29 02:29:54;;;;;;;0.30;0.30;;;5.50;99.90;;;;;;4985743;28;20451;-85
2022/04/29 02:32:21;;;;;;;0.40;0.40;;;5.50;99.90;;;;;;4978349;28;20713;-85
2022/04/29 02:34:46;;;;;;;0.40;0.40;;;5.50;99.90;;;;;;4987651;28;20191;-86
2022/04/29 02:37:12;;;;;;;0.50;0.50;;;5.50;99.90;;;;;;4971724;28;20452;-85
2022/04/29 02:39:37;;;;;;;0.40;0.40;;;5.50;99.90;;;;;;4973864;28;20205;-85
2022/04/29 02:42:04;;;;;;;0.40;0.40;;;5.40;99.90;;;;;;4986970;28;20193;-85
2022/04/29 02:44:29;;;;;;;0.40;0.40;;;5.40;99.90;;;;;;4974742;28;20189;-85
2022/04/29 02:47:07;;;;;;;0.40;0.40;;;5.50;99.90;;;;;;4983292;28;20498;-85
2022/04/29 02:49:41;;;;;;;0.40;0.40;;;5.50;99.90;;;;;;4980600;28;20300;-85
2022/04/29 02:52:08;;;;;;;0.40;0.40;;;5.40;99.90;;;;;;4980549;28;20465;-86
2022/04/29 02:54:34;;;;;;;0.40;0.40;;;5.40;99.90;;;;;;4981966;28;20476;-85
2022/04/29 02:57:00;;;;;;;0.40;0.40;;;5.40;99.90;;;;;;4988208;28;20538;-85
2022/04/29 02:59:25;;;;;;;0.40;0.40;;;5.30;99.90;;;;;;4975145;28;20568;-86
2022/04/29 03:01:52;;;;;;;0.30;0.30;;;5.10;99.90;;;;;;4979415;28;20196;-86
2022/04/29 03:04:17;;;;;;;0.40;0.40;;;5.20;99.90;;;;;;4974666;28;20185;-86
2022/04/29 03:06:43;;;;;;;0.30;0.30;;;5.30;99.90;;;;;;4995273;28;20543;-85
2022/04/29 03:09:09;;;;;;;0.40;0.40;;;5.20;99.90;;;;;;4986404;28;20228;-85
2022/04/29 03:11:35;;;;;;;0.40;0.40;;;5.20;99.90;;;;;;4985661;28;20646;-85
2022/04/29 03:14:00;;;;;;;0.30;0.30;;;5.00;99.90;;;;;;4983787;28;20455;-85
2022/04/29 03:16:26;;;;;;;0.40;0.40;;;5.10;99.90;;;;;;4983371;28;20192;-86
2022/04/29 03:18:51;;;;;;;0.30;0.30;;;5.10;99.90;;;;;;4982616;28;20208;-86
2022/04/29 03:21:20;;;;;;;0.30;0.30;;;5.00;99.90;;;;;;4973542;28;20189;-86
2022/04/29 03:23:46;;;;;;;0.40;0.40;;;5.10;99.90;;;;;;4970038;28;20182;-89
2022/04/29 03:26:12;;;;;;;0.40;0.40;;;5.20;99.90;;;;;;4980073;28;20490;-88
2022/04/29 03:28:38;;;;;;;0.40;0.40;;;5.10;99.90;;;;;;4974114;28;20497;-88
2022/04/29 03:31:04;;;;;;;0.40;0.40;;;5.10;99.90;;;;;;4977767;28;20200;-87
2022/04/29 03:33:29;;;;;;;0.40;0.40;;;5.10;99.90;;;;;;4975287;28;20189;-89
2022/04/29 03:35:55;;;;;;;0.37;0.37;;;5.10;99.90;;;;;;4981942;28;20448;-88
2022/04/29 03:38:21;;;;;;;0.40;0.40;;;5.10;99.90;;;;;;4988266;28;20200;-88
2022/04/29 03:40:47;;;;;;;0.40;0.40;;;5.00;99.90;;;;;;4981881;28;20664;-88
2022/04/29 03:43:12;;;;;;;0.40;0.40;;;5.10;99.90;;;;;;4979599;28;21043;-88
2022/04/29 03:45:38;;;;;;;0.40;0.40;;;5.10;99.90;;;;;;4979155;28;20223;-88
2022/04/29 03:48:04;;;;;;;0.40;0.40;;;4.90;99.90;;;;;;4989909;28;20630;-88
2022/04/29 03:50:30;;;;;;;0.30;0.30;;;5.00;99.90;;;;;;4988347;28;20488;-88
2022/04/29 03:52:57;;;;;;;0.30;0.30;;;5.00;99.90;;;;;;4984095;28;20513;-88
2022/04/29 03:55:26;;;;;;;0.40;0.40;;;5.00;99.90;;;;;;4980123;28;20185;-88
2022/04/29 03:57:53;;;;;;;0.40;0.40;;;5.00;99.90;;;;;;4972709;28;20533;-88
2022/04/29 04:00:20;;;;;;;0.40;0.40;;;5.00;99.90;;;;;;4985472;28;21243;-87
2022/04/29 04:02:45;;;;;;;0.30;0.30;;;5.00;99.90;;;;;;4981217;28;20518;-86
2022/04/29 04:05:12;;;;;;;0.40;0.40;;;4.90;99.90;;;;;;4985838;28;20444;-88
2022/04/29 04:07:38;;;;;;;0.40;0.40;;;4.90;99.90;;;;;;4980667;28;20221;-88
2022/04/29 04:10:05;;;;;;;0.30;0.30;;;4.90;99.90;;;;;;4984248;28;20960;-88
2022/04/29 04:12:48;;;;;;;0.40;0.40;;;4.90;99.90;;;;;;4987735;28;20448;-88
2022/04/29 04:15:15;;;;;;;0.40;0.40;;;4.90;99.90;;;;;;4981331;28;20835;-88
2022/04/29 04:17:41;;;;;;;0.30;0.30;;;4.90;99.90;;;;;;4980006;28;20472;-88
2022/04/29 04:20:08;;;;;;;0.40;0.40;;;4.90;99.90;;;;;;4982317;28;21295;-88
2022/04/29 04:22:35;;;;;;;0.30;0.30;;;5.00;99.90;;;;;;4988710;28;20191;-88
2022/04/29 04:25:08;;;;;;;0.30;0.30;;;5.00;99.90;;;;;;4988011;28;20448;-87
2022/04/29 04:27:34;;;;;;;0.30;0.30;;;5.10;99.90;;;;;;4987785;28;20500;-88
2022/04/29 04:30:01;;;;;;;0.30;0.30;;;5.10;99.90;;;;;;4987488;28;20499;-88
2022/04/29 04:32:27;;;;;;;0.30;0.30;;;5.10;99.90;;;;;;4980919;28;20194;-88
2022/04/29 04:34:57;;;;;;;0.37;0.37;;;5.20;99.90;;;;;;4978281;28;20944;-88
2022/04/29 04:37:24;;;;;;;0.37;0.37;;;5.20;99.90;;;;;;4983578;28;20450;-88
2022/04/29 04:39:51;;;;;;;0.30;0.30;;;5.30;99.90;;;;;;4980035;28;20452;-87
2022/04/29 04:42:18;;;;;;;0.30;0.30;;;5.30;99.90;;;;;;4991384;28;20451;-88
2022/04/29 04:44:45;;;;;;;0.40;0.40;;;5.30;99.90;;;;;;4983381;28;20453;-88
2022/04/29 04:47:10;;;;;;;0.30;0.30;;;5.40;99.90;;;;;;4987897;28;20953;-88
2022/04/29 04:49:36;;;;;;;0.30;0.30;;;5.40;99.90;;;;;;4972462;28;20473;-89
2022/04/29 04:52:02;;;;;;;0.40;0.40;;;5.50;99.90;;;;;;4976535;28;20253;-88
2022/04/29 04:54:27;;;;;;;0.30;0.30;;;5.60;99.90;;;;;;4977888;28;20197;-88
2022/04/29 04:56:53;;;;;;;0.40;0.40;;;5.60;99.90;;;;;;4974966;28;20189;-88
2022/04/29 04:59:18;;;;;;;0.30;0.30;;;5.70;99.90;;;;;;4981540;28;20205;-88
2022/04/29 05:01:44;;;;;;;0.30;0.30;;;5.80;99.90;;;;;;4977312;28;20189;-88
2022/04/29 05:04:10;;;;;;;0.30;0.30;;;5.90;99.90;;;;;;4976810;28;20189;-88
2022/04/29 05:06:37;;;;;;;0.30;0.30;;;5.90;99.90;;;;;;4986499;28;20209;-88
2022/04/29 05:09:06;;;;;;;0.30;0.30;;;6.00;99.90;;;;;;4981711;28;20248;-85
2022/04/29 05:11:31;;;;;;;0.30;0.30;;;6.10;99.90;;;;;;4975078;28;20445;-85
2022/04/29 05:13:57;;;;;;;0.30;0.30;;;6.10;99.90;;;;;;4982449;28;20548;-85
2022/04/29 05:16:23;;;;;;;0.30;0.30;;;6.30;99.90;;;;;;4982698;28;20200;-85
2022/04/29 05:18:49;;;;;;;0.30;0.30;;;6.30;99.90;;;;;;4982727;28;20448;-85
2022/04/29 05:21:15;;;;;;;0.30;0.30;;;6.40;99.90;;;;;;4989428;28;20451;-85
2022/04/29 05:23:41;;;;;;;0.30;0.30;;;6.50;99.90;;;;;;4982415;28;20188;-87
2022/04/29 05:26:06;;;;;;;0.30;0.30;;;6.60;99.90;;;;;;4990652;28;20193;-86
2022/04/29 05:28:32;;;;;;;0.30;0.30;;;6.60;99.90;;;;;;4988578;28;20475;-86
2022/04/29 05:30:58;;;;;;;0.30;0.30;;;6.50;99.90;;;;;;4989623;28;20192;-86
2022/04/29 05:33:24;;;;;;;0.30;0.30;;;6.70;99.90;;;;;;4985327;28;20181;-85
2022/04/29 05:35:50;;;;;;;0.40;0.40;;;6.80;99.90;;;;;;4985057;28;20475;-86
2022/04/29 05:38:16;;;;;;;0.30;0.30;;;6.90;99.90;;;;;;4979974;28;20194;-85
2022/04/29 05:43:27;;;;;;;0.30;0.30;;;7.10;99.90;;;;;;4991065;28;20252;-86
2022/04/29 05:45:53;;;;;;;0.30;0.30;;;7.10;99.90;;;;;;4988789;28;20444;-86
2022/04/29 05:48:18;;;;;;;0.30;0.30;;;7.00;99.90;;;;;;4989771;28;20797;-87
2022/04/29 05:50:44;;;;;;;0.30;0.30;;;7.00;99.90;;;;;;4983271;28;20245;-86
2022/04/29 05:53:10;;;;;;;0.30;0.30;;;6.90;99.90;;;;;;4978895;28;20181;-86
2022/04/29 05:55:36;;;;;;;0.20;0.20;;;7.00;99.90;;;;;;4980880;28;20444;-85
2022/04/29 05:58:01;;;;;;;0.27;0.27;;;7.10;99.90;;;;;;4986179;28;20700;-85
2022/04/29 06:00:27;;;;;;;0.30;0.30;;;7.30;99.90;;;;;;4982430;28;20498;-86
2022/04/29 06:02:52;;;;;;;0.30;0.30;;;7.30;99.90;;;;;;4990551;28;20235;-86
2022/04/29 06:05:18;;;;;;;0.30;0.30;;;7.40;99.90;;;;;;4984524;28;20185;-87
2022/04/29 06:07:44;;;;;;;0.30;0.30;;;7.50;99.90;;;;;;4987361;28;20290;-87
2022/04/29 06:10:09;;;;;;;0.20;0.20;;;7.40;99.90;;;;;;4988341;28;20196;-86
2022/04/29 06:12:39;;;;;;;0.23;0.23;;;7.50;99.90;;;;;;4984962;28;20185;-87
2022/04/29 06:15:07;;;;;;;0.30;0.30;;;7.60;99.90;;;;;;4981959;28;20264;-86
2022/04/29 06:17:33;;;;;;;0.30;0.30;;;7.50;99.90;;;;;;4987756;28;20503;-88
2022/04/29 06:19:59;;;;;;;0.20;0.20;;;7.30;99.90;;;;;;4985438;28;20911;-86
2022/04/29 06:22:24;;;;;;;0.30;0.30;;;7.60;99.90;;;;;;4987277;28;20199;-87
2022/04/29 06:24:50;;;;;;;0.30;0.30;;;7.50;99.90;;;;;;4982735;28;20239;-88
2022/04/29 06:27:15;;;;;;;0.30;0.30;;;7.80;99.90;;;;;;4985500;28;20728;-86
2022/04/29 06:29:41;;;;;;;0.30;0.30;;;7.80;99.90;;;;;;4985535;28;20185;-87
2022/04/29 06:32:07;;;;;;;0.20;0.20;;;7.70;99.90;;;;;;4985632;28;20697;-87
2022/04/29 06:34:33;;;;;;;0.30;0.30;;;7.70;99.90;;;;;;4983779;28;20200;-90
2022/04/29 06:36:59;;;;;;;0.30;0.30;;;7.80;99.90;;;;;;4984177;28;20453;-92
2022/04/29 06:39:24;;;;;;;0.30;0.30;;;8.10;99.90;;;;;;4980858;28;20258;-90
2022/04/29 06:41:50;;;;;;;0.30;0.30;;;8.10;99.90;;;;;;4987129;28;20185;-90
2022/04/29 06:44:15;;;;;;;0.33;0.33;;;8.10;99.90;;;;;;4981014;28;20264;-90
2022/04/29 06:46:41;;;;;;;0.20;0.20;;;8.00;99.90;;;;;;4987213;28;20278;-90
2022/04/29 06:49:08;;;;;;;0.30;0.30;;;7.90;99.90;;;;;;4989701;28;20276;-86
2022/04/29 06:51:34;;;;;;;0.30;0.30;;;7.90;99.90;;;;;;4986208;28;20487;-87
2022/04/29 06:54:00;;;;;;;0.20;0.20;;;8.10;99.90;;;;;;4985644;28;20910;-86
2022/04/29 06:56:25;;;;;;;0.20;0.20;;;8.00;99.90;;;;;;4982976;28;20814;-87
2022/04/29 06:58:51;;;;;;;0.23;0.23;;;8.00;99.90;;;;;;4987309;28;20211;-87
2022/04/29 07:01:17;;;;;;;0.20;0.20;;;8.30;99.90;;;;;;4985478;28;20201;-86
2022/04/29 07:03:43;;;;;;;0.30;0.30;;;8.40;99.90;;;;;;4982921;28;20196;-85
2022/04/29 07:06:09;;;;;;;0.20;0.20;;;8.40;99.90;;;;;;4987028;28;20197;-85
2022/04/29 07:08:38;;;;;;;0.20;0.20;;;8.60;99.90;;;;;;4981182;28;20475;-85
2022/04/29 07:11:04;;;;;;;0.30;0.30;;;8.50;99.90;;;;;;4983635;28;20204;-84
2022/04/29 07:13:30;;;;;;;0.20;0.20;;;8.50;99.90;;;;;;4985544;28;20879;-85
2022/04/29 07:15:59;;;;;;;0.30;0.30;;;8.60;99.90;;;;;;4988378;28;20240;-86
2022/04/29 07:18:25;;;;;;;0.20;0.20;;;8.80;99.90;;;;;;4984090;28;20459;-86
2022/04/29 07:20:50;;;;;;;0.20;0.20;;;8.80;99.90;;;;;;4983345;28;20448;-86
2022/04/29 07:23:16;;;;;;;0.30;0.30;;;8.80;99.90;;;;;;4975784;28;20193;-84
2022/04/29 07:25:41;;;;;;;0.20;0.20;;;8.80;99.90;;;;;;4982274;28;20712;-85
2022/04/29 07:28:07;;;;;;;0.30;0.30;;;8.70;99.90;;;;;;4984397;28;20228;-85
2022/04/29 07:30:33;;;;;;;0.20;0.20;;;8.90;99.90;;;;;;4987175;28;20208;-85
2022/04/29 07:32:58;;;;;;;0.20;0.20;;;8.90;99.90;;;;;;4986879;28;21026;-85
2022/04/29 07:43:39;;;;;;;0.20;0.20;;;10.00;99.90;;;;;;4983994;28;20870;-85
2022/04/29 07:46:05;;;;;;;0.20;0.20;;;10.20;99.90;;;;;;4984922;28;20452;-85
2022/04/29 07:48:31;;;;;;;0.20;0.20;;;10.20;99.90;;;;;;4990434;28;21268;-85
2022/04/29 07:50:57;;;;;;;0.20;0.20;;;10.10;99.90;;;;;;4986541;28;20275;-86
2022/04/29 07:53:23;;;;;;;0.20;0.20;;;10.20;99.90;;;;;;4981471;28;20468;-85
2022/04/29 07:55:48;;;;;;;0.20;0.20;;;10.50;99.90;;;;;;4991778;28;20805;-86
2022/04/29 07:58:14;;;;;;;0.20;0.20;;;10.90;99.90;;;;;;4983184;28;20189;-86
2022/04/29 08:00:40;;;;;;;0.20;0.20;;;11.30;99.90;;;;;;4979870;28;20208;-86
2022/04/29 08:03:06;;;;;;;0.20;0.20;;;11.80;99.90;;;;;;4985994;28;20707;-85
2022/04/29 08:05:32;;;;;;;0.10;0.10;;;12.00;99.90;;;;;;4993076;28;20523;-85
2022/04/29 08:08:01;;;;;;;0.10;0.10;;;11.80;99.90;;;;;;4988003;28;20236;-85
2022/04/29 08:10:29;;;;;;;0.10;0.10;;;12.00;99.90;;;;;;4989356;28;20440;-86
2022/04/29 08:12:57;;;;;;;0.10;0.10;;;12.00;99.90;;;;;;4988946;28;20432;-89
2022/04/29 08:15:23;;;;;;;0.10;0.10;;;12.40;99.90;;;;;;4992169;28;20438;-88
2022/04/29 08:17:49;;;;;;;0.10;0.10;;;12.40;99.90;;;;;;4990625;28;21038;-85
2022/04/29 08:20:14;;;;;;;0.20;0.20;;;12.50;99.90;;;;;;4991314;28;20472;-86
2022/04/29 08:22:42;;;;;;;0.10;0.10;;;12.70;99.90;;;;;;4989083;28;20271;-86
2022/04/29 08:25:08;;;;;;;0.10;0.10;;;13.00;99.90;;;;;;4987720;28;20200;-86
2022/04/29 08:27:34;;;;;;;0.10;0.10;;;13.30;99.90;;;;;;4986240;28;20650;-86
2022/04/29 08:29:59;;;;;;;0.10;0.10;;;13.00;99.90;;;;;;4998254;28;20543;-86
2022/04/29 08:32:25;;;;;;;0.10;0.10;;;12.70;99.90;;;;;;4980940;28;20460;-85
2022/04/29 08:34:51;;;;;;;0.10;0.10;;;12.10;99.90;;;;;;4988225;28;20193;-88
2022/04/29 08:37:18;;;;;;;0.10;0.10;;;11.70;99.90;;;;;;4989758;28;20459;-86
2022/04/29 08:39:44;;;;;;;0.10;0.10;;;11.80;99.90;;;;;;4993582;28;20188;-87
2022/04/29 08:42:10;;;;;;;0.10;0.10;;;12.10;99.90;;;;;;4991548;28;20468;-87
2022/04/29 08:44:39;;;;;;;0.10;0.10;;;12.50;99.90;;;;;;4989288;28;20445;-87
2022/04/29 08:47:08;;;;;;;0.10;0.10;;;13.20;99.90;;;;;;4999994;28;20576;-88
2022/04/29 08:49:35;;;;;;;0.10;0.10;;;13.30;99.90;;;;;;4990937;28;20503;-86
2022/04/29 08:52:01;;;;;;;0.10;0.10;;;13.30;99.90;;;;;;4968552;28;20445;-87
2022/04/29 09:00:04;;;;;;;0.10;0.10;;;11.90;99.90;;;;;;4973496;28;20545;-87
2022/04/29 09:02:36;;;;;;;0.10;0.10;;;12.10;99.90;;;;;;4961699;28;20449;-86
2022/04/29 09:05:01;;;;;;;0.10;0.10;;;12.90;99.90;;;;;;4966244;28;21261;-86
2022/04/29 09:08:00;;;;;;;0.10;0.10;;;13.20;99.90;;;;;;4969805;28;20545;-86
2022/04/29 09:10:28;;;;;;;0.10;0.10;;;12.90;99.90;;;;;;4965887;28;20178;-86
2022/04/29 09:12:55;;;;;;;0.10;0.10;;;12.00;99.90;;;;;;4969432;28;20460;-87
2022/04/29 09:15:21;;;;;;;0.10;0.10;;;12.00;99.90;;;;;;4973483;28;20425;-88
2022/04/29 09:17:53;;;;;;;0.10;0.10;;;11.70;99.90;;;;;;4970557;28;20476;-86
2022/04/29 09:20:22;;;;;;;0.10;0.10;;;12.50;99.90;;;;;;4954804;28;20594;-85
2022/04/29 09:22:49;;;;;;;0.10;0.10;;;13.00;99.90;;;;;;4963928;28;20447;-87
2022/04/29 09:25:15;;;;;;;0.10;0.10;;;13.30;99.90;;;;;;4965599;28;20480;-86
2022/04/29 09:28:02;;;;;;;0.10;0.10;;;14.10;99.90;;;;;;4962897;28;20491;-85
2022/04/29 09:30:32;;;;;;;0.10;0.10;;;14.50;99.90;;;;;;4953568;28;20468;-87
2022/04/29 09:32:58;;;;;;;0.10;0.10;;;13.80;99.90;;;;;;4967016;28;20476;-86
2022/04/29 09:35:43;;;;;;;0.10;0.10;;;13.50;99.90;;;;;;4965571;28;20461;-87
2022/04/29 09:41:00;;;;;;;0.10;0.10;;;13.40;99.90;;;;;;4957194;28;20444;-87
2022/04/29 09:43:42;;;;;;;0.10;0.10;;;13.80;99.90;;;;;;4966482;28;20931;-87
2022/04/29 09:46:22;;;;;;;0.10;0.10;;;14.10;99.90;;;;;;4969622;28;20547;-86
2022/04/29 09:48:55;;;;;;;0.10;0.10;;;14.30;99.90;;;;;;4968953;28;20461;-87
2022/04/29 09:51:40;;;;;;;0.10;0.10;;;14.50;99.90;;;;;;4978476;28;20476;-85
2022/04/29 09:54:19;;;;;;;0.10;0.10;;;15.00;99.90;;;;;;4989902;28;20559;-86
2022/04/29 09:57:06;;;;;;;0.10;0.10;;;15.50;99.90;;;;;;4983648;28;20822;-86
2022/04/29 09:59:39;;;;;;;0.10;0.10;;;14.50;99.90;;;;;;4981751;28;20531;-86
2022/04/29 10:02:06;;;;;;;0.10;0.10;;;14.60;99.90;;;;;;4979017;28;20441;-87
2022/04/29 10:04:36;;;;;;;0.10;0.10;;;14.70;99.90;;;;;;4981291;28;21010;-87
2022/04/29 10:07:04;;;;;;;0.10;0.10;;;14.30;99.90;;;;;;4982449;28;20495;-85
2022/04/29 10:09:35;;;;;;;0.10;0.10;;;14.20;99.90;;;;;;4981970;28;20524;-86
2022/04/29 10:12:03;;;;;;;0.10;0.10;;;14.10;99.90;;;;;;4985651;28;20459;-85
2022/04/29 10:14:31;;;;;;;0.10;0.10;;;14.90;99.90;;;;;;4987096;28;20436;-87
2022/04/29 10:22:46;;;;;;;0.00;0.00;;;15.00;99.90;;;;;;4987953;28;20801;-87
2022/04/29 10:25:12;;;;;;;0.00;0.00;;;14.70;99.90;;;;;;4976743;28;20452;-88
2022/04/29 10:27:42;;;;;;;0.00;0.00;;;13.20;99.90;;;;;;4982318;28;20507;-88
2022/04/29 10:30:09;;;;;;;0.00;0.00;;;13.60;99.90;;;;;;4981668;28;20488;-87
2022/04/29 10:33:09;;;;;;;0.00;0.00;;;14.00;99.90;;;;;;4984922;28;20453;-88
2022/04/29 10:35:43;;;;;;;0.00;0.00;;;14.10;99.90;;;;;;4985753;28;20460;-89
2022/04/29 10:38:39;;;;;;;0.00;0.00;;;15.00;99.90;;;;;;4989653;28;20451;-88
2022/04/29 10:41:09;;;;;;;0.00;0.00;;;16.40;99.90;;;;;;4972362;28;20821;-88
2022/04/29 10:43:50;;;;;;;0.00;0.00;;;16.30;99.90;;;;;;4983779;28;20444;-87
2022/04/29 10:46:31;;;;;;;0.00;0.00;;;15.60;99.90;;;;;;4989713;28;20503;-90
2022/04/29 10:48:57;;;;;;;0.00;0.00;;;15.60;99.90;;;;;;4989580;28;20794;-89
2022/04/29 10:51:29;;;;;;;0.00;0.00;;;15.50;99.90;;;;;;4980989;28;20484;-88
2022/04/29 10:53:56;;;;;;;0.00;0.00;;;15.10;99.90;;;;;;4984292;28;20455;-89
2022/04/29 10:56:31;;;;;;;0.00;0.00;;;15.30;99.90;;;;;;4986695;28;20502;-87
2022/04/29 10:59:12;;;;;;;0.00;0.00;;;14.90;99.90;;;;;;4983255;28;20518;-88
2022/04/29 11:01:39;;;;;;;0.00;0.00;;;14.80;99.90;;;;;;4983566;28;20831;-87
2022/04/29 11:04:07;;;;;;;0.00;0.00;;;14.50;99.90;;;;;;4979442;28;20436;-84
2022/04/29 11:06:37;;;;;;;0.00;0.00;;;15.20;99.90;;;;;;4984748;28;20976;-85
2022/04/29 11:09:22;;;;;;;0.00;0.00;;;15.50;99.90;;;;;;4988762;28;20439;-86
2022/04/29 11:11:48;;;;;;;0.00;0.00;;;15.70;99.90;;;;;;4977429;28;20477;-86
2022/04/29 11:14:14;;;;;;;0.00;0.00;;;15.70;99.90;;;;;;4984497;28;20474;-86
2022/04/29 11:17:14;;;;;;;0.00;0.00;;;15.60;99.90;;;;;;4984446;28;20332;-88
2022/04/29 11:19:45;;;;;;;0.00;0.00;;;14.70;99.90;;;;;;4984873;28;20471;-88
2022/04/29 11:25:03;;;;;;;0.00;0.00;;;14.50;99.90;;;;;;4992226;28;20424;-89
2022/04/29 11:27:34;;;;;;;0.00;0.00;;;15.00;99.90;;;;;;4985823;28;20690;-89
2022/04/29 11:30:02;;;;;;;0.00;0.00;;;14.70;99.90;;;;;;4984093;28;20513;-89
2022/04/29 11:32:29;;;;;;;0.00;0.00;;;14.90;99.90;;;;;;4975491;28;20602;-90
2022/04/29 11:35:00;;;;;;;0.00;0.00;;;15.40;99.90;;;;;;4976919;28;20464;-89
2022/04/29 11:37:28;;;;;;;0.00;0.00;;;15.40;99.90;;;;;;4987532;28;20451;-88
2022/04/29 11:40:00;;;;;;;0.00;0.00;;;14.60;99.90;;;;;;4987802;28;20451;-90
2022/04/29 11:42:26;;;;;;;0.00;0.00;;;14.30;99.90;;;;;;4983440;28;20448;-88
2022/04/29 11:44:52;;;;;;;0.00;0.00;;;14.30;99.90;;;;;;4989278;28;20444;-90
2022/04/29 11:47:25;;;;;;;0.00;0.00;;;14.50;99.90;;;;;;4991558;28;20221;-91
2022/04/29 11:49:52;;;;;;;0.00;0.00;;;15.20;99.90;;;;;;4987036;28;20193;-91
2022/04/29 11:52:18;;;;;;;0.00;0.00;;;15.10;99.90;;;;;;4983846;28;20873;-90
2022/04/29 11:55:01;;;;;;;0.00;0.00;;;15.50;99.90;;;;;;4990340;28;20441;-90
2022/04/29 11:57:29;;;;;;;0.00;0.00;;;15.90;99.90;;;;;;4988115;28;20451;-88
2022/04/29 11:59:55;;;;;;;0.10;0.10;;;14.90;99.90;;;;;;4988952;28;20956;-87
2022/04/29 12:02:23;;;;;;;0.10;0.10;;;14.20;99.90;;;;;;4988063;28;20449;-87
2022/04/29 12:05:03;;;;;;;0.10;0.10;;;15.00;99.90;;;;;;4991169;28;20228;-88
2022/04/29 12:07:37;;;;;;;0.10;0.10;;;15.30;99.90;;;;;;4989327;28;20485;-90
2022/04/29 12:10:26;;;;;;;0.10;0.10;;;16.60;99.90;;;;;;4989356;28;20973;-94
2022/04/29 12:12:56;;;;;;;0.10;0.10;;;16.50;98.00;;;;;;4991203;28;20481;-92
2022/04/29 12:15:28;;;;;;;0.10;0.10;;;16.60;99.00;;;;;;4995828;28;20651;-93
2022/04/29 12:17:59;;;;;;;0.10;0.10;;;16.10;99.20;;;;;;4992340;28;20453;-93
2022/04/29 12:20:26;;;;;;;0.10;0.10;;;16.20;99.10;;;;;;4986172;28;20444;-95
2022/04/29 12:22:52;;;;;;;0.10;0.00;;;16.80;99.40;;;;;;4994122;28;20511;-95
2022/04/29 12:25:38;;;;;;;0.10;0.00;;;17.90;97.50;;;;;;4986481;28;20436;-95
2022/04/29 12:28:20;;;;;;;0.10;0.00;;;18.70;94.50;;;;;;4993937;28;20480;-93
2022/04/29 12:37:19;;;;;;;0.10;0.00;;;18.80;96.80;;;;;;4988629;28;20455;-91
2022/04/29 12:39:47;;;;;;;0.10;0.00;;;19.80;94.30;;;;;;4987129;28;20546;-92
2022/04/29 12:42:15;;;;;;;0.10;0.00;;;19.00;95.40;;;;;;4991485;28;20451;-94
2022/04/29 12:45:09;;;;;;;0.10;0.00;;;19.80;94.30;;;;;;4992925;28;20503;-93
2022/04/29 12:47:40;;;;;;;0.10;0.00;;;20.20;92.00;;;;;;4978028;28;20484;-96
2022/04/29 12:50:31;;;;;;;0.10;0.00;;;19.50;94.10;;;;;;4982303;28;20460;-94
2022/04/29 12:53:12;;;;;;;0.10;0.00;;;19.50;92.80;;;;;;4974747;28;20573;-92
2022/04/29 12:55:46;;;;;;;0.10;0.00;;;18.70;93.90;;;;;;4987110;28;20472;-93
2022/04/29 12:58:16;;;;;;;0.10;0.00;;;19.00;94.30;;;;;;4991947;28;20454;-92
2022/04/29 13:00:59;;;;;;;0.10;0.00;;;18.90;92.00;;;;;;4992776;28;20474;-93
2022/04/29 13:03:26;;;;;;;0.10;0.00;;;19.20;93.40;;;;;;4981722;28;20441;-93
2022/04/29 13:05:52;;;;;;;0.10;0.00;;;18.60;92.80;;;;;;4986645;28;20436;-92
2022/04/29 13:08:21;;;;;;;0.10;0.00;;;18.20;93.60;;;;;;4992103;28;20535;-94
2022/04/29 13:10:54;;;;;;;0.10;0.00;;;17.90;94.20;;;;;;4993597;28;20466;-92
2022/04/29 13:13:22;;;;;;;0.10;0.10;;;16.70;94.10;;;;;;4992073;28;20440;-90
2022/04/29 13:15:48;;;;;;;0.10;0.10;;;16.70;95.70;;;;;;4976063;28;20441;-92
2022/04/29 13:18:16;;;;;;;0.10;0.10;;;16.90;96.00;;;;;;4980971;28;20439;-93
2022/04/29 13:20:42;;;;;;;0.10;0.00;;;16.80;95.80;;;;;;4987974;28;20456;-93
2022/04/29 13:23:10;;;;;;;0.10;0.10;;;17.30;95.80;;;;;;4992017;28;20453;-93
2022/04/29 13:25:36;;;;;;;0.10;0.10;;;17.10;94.80;;;;;;4990221;28;20644;-90
2022/04/29 13:28:04;;;;;;;0.10;0.10;;;16.40;94.30;;;;;;4986774;28;20566;-89
2022/04/29 13:30:31;;;;;;;0.10;0.10;;;16.40;96.90;;;;;;4993858;28;20428;-92
2022/04/29 13:32:58;;;;;;;0.10;0.00;;;17.60;97.20;;;;;;4993487;28;20946;-94